createdAt,value
2022-12-08T00:01:35.494Z,14.60
2022-12-08T00:04:05.033Z,17.58
2022-12-08T00:06:59.611Z,19.50
2022-12-08T00:09:39.689Z,20.48
2022-12-08T00:12:16.553Z,18.20
2022-12-08T00:14:47.187Z,18.55
2022-12-08T00:17:17.447Z,16.75
2022-12-08T00:19:45.133Z,15.77
2022-12-08T00:22:15.396Z,20.87
2022-12-08T00:24:47.614Z,16.50
2022-12-08T00:27:18.128Z,18.25
2022-12-08T00:29:46.371Z,15.32
2022-12-08T00:32:14.970Z,14.45
2022-12-08T00:34:42.657Z,15.13
2022-12-08T00:37:10.194Z,17.67
2022-12-08T00:39:38.556Z,26.40
2022-12-08T00:42:12.037Z,28.23
2022-12-08T00:44:41.885Z,22.23
2022-12-08T00:47:10.432Z,29.10
2022-12-08T00:52:05.590Z,28.98
2022-12-08T00:54:33.169Z,23.48
2022-12-08T00:57:00.760Z,20.77
2022-12-08T00:59:28.322Z,20.52
2022-12-08T01:01:55.945Z,17.33
2022-12-08T01:04:24.928Z,22.88
2022-12-08T01:06:53.279Z,21.50
2022-12-08T01:09:20.876Z,22.70
2022-12-08T01:11:48.559Z,23.65
2022-12-08T01:14:16.563Z,21.60
2022-12-08T01:16:44.424Z,24.45
2022-12-08T01:19:15.225Z,27.92
2022-12-08T01:21:44.782Z,23.73
2022-12-08T01:24:19.226Z,21.88
2022-12-08T01:26:48.312Z,19.92
2022-12-08T01:29:16.077Z,19.17
2022-12-08T01:31:43.650Z,17.00
2022-12-08T01:34:12.665Z,15.50
2022-12-08T01:36:42.316Z,18.63
2022-12-08T01:39:16.999Z,20.30
2022-12-08T01:41:47.653Z,18.85
2022-12-08T01:44:15.118Z,20.67
2022-12-08T01:46:48.562Z,18.58
2022-12-08T01:49:28.224Z,17.80
2022-12-08T01:52:14.433Z,20.27
2022-12-08T01:54:55.744Z,19.58
2022-12-08T01:57:34.361Z,16.65
2022-12-08T02:00:09.673Z,19.30
2022-12-08T02:03:03.314Z,16.77
2022-12-08T02:05:38.590Z,19.50
2022-12-08T02:08:13.252Z,20.05
2022-12-08T02:10:43.894Z,17.50
2022-12-08T02:13:16.769Z,15.20
2022-12-08T02:16:46.457Z,14.88
2022-12-08T02:19:43.958Z,14.45
2022-12-08T02:22:48.947Z,15.63
2022-12-08T02:25:42.438Z,14.88
2022-12-08T02:28:47.609Z,14.43
2022-12-08T02:32:15.886Z,14.68
2022-12-08T02:35:18.729Z,15.27
2022-12-08T02:37:58.566Z,13.95
2022-12-08T02:40:39.993Z,14.90
2022-12-08T02:43:22.510Z,15.05
2022-12-08T02:46:02.166Z,16.27
2022-12-08T02:48:30.955Z,16.52
2022-12-08T02:50:58.646Z,16.48
2022-12-08T02:53:32.165Z,15.77
2022-12-08T02:56:20.696Z,15.90
2022-12-08T02:59:06.025Z,17.08
2022-12-08T03:01:54.029Z,17.60
2022-12-08T03:04:26.992Z,18.27
2022-12-08T03:07:14.988Z,18.67
2022-12-08T03:09:52.986Z,21.00
2022-12-08T03:12:41.606Z,20.25
2022-12-08T03:15:15.634Z,22.85
2022-12-08T03:17:50.516Z,24.75
2022-12-08T03:20:23.875Z,24.48
2022-12-08T03:22:56.298Z,24.77
2022-12-08T03:25:31.989Z,29.98
2022-12-08T03:28:00.382Z,25.10
2022-12-08T03:30:32.670Z,24.95
2022-12-08T03:33:15.632Z,26.20
2022-12-08T03:35:45.233Z,26.33
2022-12-08T03:38:17.539Z,26.90
2022-12-08T03:41:05.649Z,28.90
2022-12-08T03:43:34.879Z,29.55
2022-12-08T03:46:02.629Z,30.87
2022-12-08T03:48:30.262Z,28.65
2022-12-08T03:50:57.994Z,27.53
2022-12-08T03:53:25.529Z,31.87
2022-12-08T03:55:54.421Z,28.35
2022-12-08T03:58:21.976Z,27.95
2022-12-08T04:00:49.565Z,28.38
2022-12-08T04:03:17.144Z,26.40
2022-12-08T04:05:44.752Z,26.57
2022-12-08T04:08:12.367Z,29.73
2022-12-08T04:10:40.227Z,31.70
2022-12-08T04:13:07.788Z,30.45
2022-12-08T04:15:35.492Z,27.67
2022-12-08T04:18:03.413Z,30.40
2022-12-08T04:20:31.055Z,29.20
2022-12-08T04:22:58.586Z,25.85
2022-12-08T04:25:26.304Z,27.15
2022-12-08T04:27:53.829Z,28.33
2022-12-08T04:30:21.313Z,28.75
2022-12-08T04:32:48.837Z,27.98
2022-12-08T04:35:16.994Z,28.15
2022-12-08T04:37:44.760Z,26.30
2022-12-08T04:40:13.543Z,27.65
2022-12-08T04:42:41.589Z,26.63
2022-12-08T04:45:10.168Z,24.58
2022-12-08T04:50:07.623Z,21.58
2022-12-08T04:52:37.215Z,23.80
2022-12-08T04:55:05.426Z,22.58
2022-12-08T04:57:33.016Z,22.63
2022-12-08T05:00:00.598Z,24.20
2022-12-08T05:02:28.186Z,21.70
2022-12-08T05:04:55.775Z,22.43
2022-12-08T05:07:23.295Z,23.48
2022-12-08T05:09:51.331Z,20.23
2022-12-08T05:12:18.882Z,20.10
2022-12-08T05:14:48.420Z,21.33
2022-12-08T05:17:19.161Z,21.15
2022-12-08T05:19:46.917Z,20.48
2022-12-08T05:22:14.461Z,20.42
2022-12-08T05:24:47.170Z,21.63
2022-12-08T05:27:16.052Z,21.38
2022-12-08T05:29:44.333Z,25.85
2022-12-08T05:32:11.973Z,33.10
2022-12-08T05:34:39.806Z,31.65
2022-12-08T05:37:07.407Z,29.23
2022-12-08T05:39:35.092Z,27.02
2022-12-08T05:42:02.838Z,27.23
2022-12-08T05:44:30.456Z,30.40
2022-12-08T05:46:57.991Z,30.33
2022-12-08T05:49:25.917Z,27.08
2022-12-08T05:51:53.483Z,32.10
2022-12-08T05:54:21.121Z,28.30
2022-12-08T05:56:49.837Z,31.17
2022-12-08T05:59:17.363Z,29.57
2022-12-08T06:01:44.926Z,28.35
2022-12-08T06:04:12.757Z,26.40
2022-12-08T06:06:40.233Z,25.63
2022-12-08T06:09:09.159Z,25.45
2022-12-08T06:11:36.950Z,23.75
2022-12-08T06:14:04.604Z,23.17
2022-12-08T06:16:32.872Z,31.40
2022-12-08T06:19:00.458Z,36.93
2022-12-08T06:21:28.842Z,36.30
2022-12-08T06:23:56.501Z,31.25
2022-12-08T06:26:24.205Z,26.07
2022-12-08T06:28:52.761Z,29.47
2022-12-08T06:33:51.900Z,25.75
2022-12-08T06:36:24.766Z,27.20
2022-12-08T06:38:52.996Z,42.78
2022-12-08T06:41:20.757Z,36.63
2022-12-08T06:43:48.528Z,23.80
2022-12-08T06:46:19.818Z,29.27
2022-12-08T06:48:48.069Z,54.22
2022-12-08T06:51:19.933Z,32.78
2022-12-08T06:53:47.761Z,32.78
2022-12-08T06:56:19.927Z,28.48
2022-12-08T06:58:52.323Z,23.58
2022-12-08T07:01:21.278Z,24.08
2022-12-08T07:06:25.278Z,21.92
2022-12-08T07:08:53.055Z,22.73
2022-12-08T07:11:22.304Z,20.50
2022-12-08T07:13:51.055Z,21.25
2022-12-08T07:16:18.876Z,21.75
2022-12-08T07:18:46.528Z,23.13
2022-12-08T07:21:17.593Z,29.20
2022-12-08T07:23:54.299Z,27.77
2022-12-08T07:26:25.821Z,31.88
2022-12-08T07:28:53.347Z,27.20
2022-12-08T07:31:24.947Z,21.92
2022-12-08T07:33:53.727Z,26.35
2022-12-08T07:38:50.627Z,21.88
2022-12-08T07:41:23.533Z,24.10
2022-12-08T07:43:53.571Z,26.45
2022-12-08T07:46:24.801Z,31.13
2022-12-08T07:48:54.070Z,27.85
2022-12-08T07:51:21.676Z,27.23
2022-12-08T07:53:54.196Z,32.37
2022-12-08T07:56:23.270Z,35.55
2022-12-08T07:58:51.243Z,32.75
2022-12-08T08:01:32.893Z,37.47
2022-12-08T08:04:06.908Z,34.92
2022-12-08T08:06:37.891Z,38.30
2022-12-08T08:09:05.917Z,41.03
2022-12-08T08:11:33.702Z,31.90
2022-12-08T08:14:01.538Z,29.58
2022-12-08T08:16:33.524Z,32.05
2022-12-08T08:19:04.278Z,32.03
2022-12-08T08:21:47.175Z,40.27
2022-12-08T08:24:14.735Z,38.72
2022-12-08T08:26:42.305Z,39.42
2022-12-08T08:29:10.007Z,43.38
2022-12-08T08:31:37.654Z,38.53
2022-12-08T08:34:06.403Z,34.72
2022-12-08T08:36:34.395Z,35.50
2022-12-08T08:39:02.201Z,34.28
2022-12-08T08:41:29.809Z,37.35
2022-12-08T08:43:57.387Z,38.30
2022-12-08T08:46:25.142Z,36.33
2022-12-08T08:48:52.782Z,31.90
2022-12-08T08:51:21.000Z,33.63
2022-12-08T08:53:48.624Z,29.98
2022-12-08T08:56:22.374Z,29.03
2022-12-08T08:58:51.891Z,28.27
2022-12-08T09:01:26.344Z,27.23
2022-12-08T09:03:54.997Z,36.92
2022-12-08T09:06:24.123Z,31.60
2022-12-08T09:08:52.105Z,44.25
2022-12-08T09:11:19.737Z,35.08
2022-12-08T09:13:53.359Z,23.93
2022-12-08T09:16:21.759Z,23.70
2022-12-08T09:21:22.904Z,19.20
2022-12-08T09:23:53.921Z,17.80
2022-12-08T09:26:23.311Z,17.10
2022-12-08T09:28:53.328Z,23.38
2022-12-08T09:31:23.216Z,20.42
2022-12-08T09:33:54.452Z,15.65
2022-12-08T09:36:22.107Z,17.08
2022-12-08T09:38:51.095Z,17.10
2022-12-08T09:41:48.218Z,16.83
2022-12-08T09:47:33.780Z,17.92
2022-12-08T09:50:14.145Z,21.60
2022-12-08T09:52:52.567Z,20.45
2022-12-08T09:58:53.773Z,17.42
2022-12-08T10:01:26.612Z,18.20
2022-12-08T10:03:57.422Z,17.02
2022-12-08T10:07:24.924Z,22.75
2022-12-08T10:10:11.546Z,18.73
2022-12-08T10:13:01.188Z,19.75
2022-12-08T10:15:43.647Z,19.70
2022-12-08T10:18:28.324Z,17.30
2022-12-08T10:21:12.373Z,19.02
2022-12-08T10:23:45.522Z,27.50
2022-12-08T10:26:17.616Z,41.05
2022-12-08T10:28:45.948Z,38.95
2022-12-08T10:31:32.458Z,47.22
2022-12-08T10:34:20.848Z,41.65
2022-12-08T10:39:36.957Z,40.28
2022-12-08T10:42:13.768Z,17.00
2022-12-08T10:45:11.756Z,20.13
2022-12-08T10:47:45.000Z,61.13
2022-12-08T10:50:28.488Z,51.47
2022-12-08T10:53:20.023Z,50.25
2022-12-08T10:55:58.350Z,47.30
2022-12-08T10:58:36.291Z,45.38
2022-12-08T11:01:26.791Z,44.08
2022-12-08T11:03:58.408Z,48.95
2022-12-08T11:06:32.751Z,47.03
2022-12-08T11:09:17.409Z,45.45
2022-12-08T11:11:58.334Z,46.25
2022-12-08T11:14:29.031Z,33.30
2022-12-08T11:17:07.229Z,32.58
2022-12-08T11:19:41.967Z,34.97
2022-12-08T11:22:30.709Z,36.95
2022-12-08T11:25:24.875Z,41.33
2022-12-08T11:27:57.854Z,39.35
2022-12-08T11:30:36.378Z,45.67
2022-12-08T11:33:19.853Z,38.70
2022-12-08T11:35:56.297Z,35.15
2022-12-08T11:38:27.732Z,40.17
2022-12-08T11:41:22.910Z,37.42
2022-12-08T11:44:05.777Z,39.35
2022-12-08T11:46:58.593Z,40.65
2022-12-08T11:49:40.325Z,34.72
2022-12-08T11:52:26.564Z,39.95
2022-12-08T11:55:05.455Z,38.65
2022-12-08T11:57:33.260Z,45.97
2022-12-08T12:00:02.768Z,41.25
2022-12-08T12:02:48.344Z,38.17
2022-12-08T12:06:23.930Z,50.60
2022-12-08T12:09:22.835Z,69.45
2022-12-08T12:12:15.992Z,52.83
2022-12-08T12:16:00.668Z,42.42
2022-12-08T12:18:47.680Z,33.60
2022-12-08T12:21:35.913Z,41.33
2022-12-08T12:24:25.476Z,37.45
2022-12-08T12:27:22.863Z,34.63
2022-12-08T12:30:06.733Z,33.33
2022-12-08T12:32:58.290Z,35.42
2022-12-08T12:35:41.103Z,30.83
2022-12-08T12:38:42.793Z,33.03
2022-12-08T12:41:13.537Z,33.65
2022-12-08T12:44:13.101Z,27.58
2022-12-08T12:46:46.296Z,29.30
2022-12-08T12:49:39.215Z,26.95
2022-12-08T12:52:16.033Z,26.20
2022-12-08T12:54:55.690Z,24.42
2022-12-08T12:57:37.213Z,24.30
2022-12-08T13:00:04.656Z,23.48
2022-12-08T13:02:44.148Z,23.60
2022-12-08T13:05:31.680Z,24.50
2022-12-08T13:08:19.180Z,25.80
2022-12-08T13:11:09.815Z,26.38
2022-12-08T13:13:56.439Z,22.20
2022-12-08T13:16:27.167Z,19.80
2022-12-08T13:19:03.524Z,22.02
2022-12-08T13:21:39.117Z,29.33
2022-12-08T13:24:33.141Z,32.03
2022-12-08T13:27:03.779Z,30.35
2022-12-08T13:29:33.515Z,37.45
2022-12-08T13:32:10.077Z,33.13
2022-12-08T13:34:45.429Z,26.20
2022-12-08T13:37:15.654Z,24.90
2022-12-08T13:40:00.897Z,25.20
2022-12-08T13:42:40.524Z,39.42
2022-12-08T13:45:27.845Z,38.47
2022-12-08T13:48:44.677Z,31.83
2022-12-08T13:55:12.948Z,21.23
2022-12-08T13:57:29.642Z,21.38
2022-12-08T14:00:15.331Z,20.42
2022-12-08T14:02:48.559Z,21.88
2022-12-08T14:05:34.618Z,22.00
2022-12-08T14:08:57.018Z,26.45
2022-12-08T14:11:33.777Z,39.08
2022-12-08T14:14:06.503Z,26.08
2022-12-08T14:16:40.765Z,26.55
2022-12-08T14:19:21.128Z,36.00
2022-12-08T14:22:14.118Z,43.65
2022-12-08T14:24:57.826Z,40.55
2022-12-08T14:27:32.293Z,43.03
2022-12-08T14:30:07.677Z,52.38
2022-12-08T14:32:39.468Z,54.47
2022-12-08T14:35:07.195Z,50.90
2022-12-08T14:37:48.720Z,59.25
2022-12-08T14:40:25.155Z,49.30
2022-12-08T14:43:19.709Z,53.10
2022-12-08T14:45:50.864Z,52.33
2022-12-08T14:48:31.022Z,55.97
2022-12-08T14:51:21.217Z,52.38
2022-12-08T14:53:56.267Z,47.28
2022-12-08T14:56:45.437Z,52.92
2022-12-08T14:59:23.047Z,58.33
2022-12-08T15:02:08.827Z,68.22
2022-12-08T15:04:44.656Z,76.60
2022-12-08T15:07:19.538Z,87.95
2022-12-08T15:10:05.918Z,57.47
2022-12-08T15:12:33.795Z,44.67
2022-12-08T15:15:14.415Z,85.10
2022-12-08T15:17:51.626Z,74.07
2022-12-08T15:20:40.967Z,65.97
2022-12-08T15:23:38.424Z,51.72
2022-12-08T15:26:06.540Z,59.05
2022-12-08T15:28:34.280Z,50.42
2022-12-08T15:33:29.912Z,43.83
2022-12-08T15:35:57.447Z,43.50
2022-12-08T15:38:28.862Z,51.10
2022-12-08T15:41:00.822Z,61.53
2022-12-08T15:43:31.336Z,67.32
2022-12-08T15:46:00.226Z,75.88
2022-12-08T15:48:30.635Z,42.15
2022-12-08T15:50:58.591Z,44.25
2022-12-08T15:53:26.315Z,43.30
2022-12-08T15:58:55.257Z,30.88
2022-12-08T16:01:24.559Z,27.10
2022-12-08T16:07:20.257Z,21.10
2022-12-08T16:09:38.629Z,21.88
2022-12-08T16:13:13.420Z,19.33
2022-12-08T16:18:27.623Z,26.70
2022-12-08T16:23:45.236Z,61.50
2022-12-08T16:26:35.437Z,84.03
2022-12-08T16:29:05.660Z,94.68
2022-12-08T16:31:33.506Z,81.85
2022-12-08T16:34:01.209Z,79.35
2022-12-08T16:36:28.856Z,79.90
2022-12-08T16:38:56.539Z,66.13
2022-12-08T16:41:43.112Z,59.43
2022-12-08T16:44:10.653Z,54.30
2022-12-08T16:46:38.353Z,79.90
2022-12-08T16:49:09.428Z,100.25
2022-12-08T16:51:37.195Z,121.00
2022-12-08T16:54:05.022Z,61.35
2022-12-08T16:56:33.745Z,65.82
2022-12-08T16:59:02.296Z,56.55
2022-12-08T17:01:30.715Z,42.17
2022-12-08T17:09:14.315Z,60.45
2022-12-08T17:11:43.710Z,67.20
2022-12-08T17:14:14.721Z,58.92
2022-12-08T17:16:44.163Z,56.78
2022-12-08T17:19:14.097Z,49.85
2022-12-08T17:21:42.968Z,52.45
2022-12-08T17:24:10.992Z,70.00
2022-12-08T17:26:38.628Z,78.35
2022-12-08T17:29:06.324Z,80.70
2022-12-08T17:31:34.233Z,66.90
2022-12-08T17:34:04.911Z,65.47
2022-12-08T17:36:32.727Z,51.97
2022-12-08T17:39:01.251Z,44.75
2022-12-08T17:43:57.509Z,32.10
2022-12-08T17:46:25.241Z,37.05
2022-12-08T17:48:53.636Z,80.22
2022-12-08T17:53:49.055Z,103.47
2022-12-08T17:56:21.861Z,73.63
2022-12-08T17:58:54.284Z,60.13
2022-12-08T18:01:24.133Z,47.55
2022-12-08T18:03:51.890Z,45.65
2022-12-08T18:06:19.655Z,76.67
2022-12-08T18:08:47.441Z,87.18
2022-12-08T18:11:19.900Z,50.17
2022-12-08T18:13:50.152Z,42.92
2022-12-08T18:16:21.438Z,62.78
2022-12-08T18:18:49.330Z,69.72
2022-12-08T18:21:23.278Z,65.25
2022-12-08T18:23:52.107Z,38.05
2022-12-08T18:26:19.878Z,33.03
2022-12-08T18:28:47.926Z,27.20
2022-12-08T18:31:19.812Z,25.48
2022-12-08T18:33:49.607Z,22.45
2022-12-08T18:36:21.977Z,27.02
2022-12-08T18:38:50.272Z,23.98
2022-12-08T18:41:25.705Z,22.08
2022-12-08T18:43:55.365Z,26.50
2022-12-08T18:46:24.840Z,286.48
2022-12-08T18:48:53.117Z,245.30
2022-12-08T18:51:24.089Z,322.77
2022-12-08T18:53:52.495Z,319.73
2022-12-08T18:56:33.031Z,270.13
2022-12-08T18:59:08.855Z,153.18
2022-12-08T19:01:38.848Z,34.42
2022-12-08T19:04:28.089Z,88.50
2022-12-08T19:06:57.580Z,147.90
2022-12-08T19:09:26.976Z,169.43
2022-12-08T19:11:56.332Z,126.07
2022-12-08T19:14:28.185Z,49.90
2022-12-08T19:16:58.063Z,29.42
2022-12-08T19:19:27.417Z,19.25
2022-12-08T19:21:56.283Z,17.85
2022-12-08T19:24:24.978Z,18.08
2022-12-08T19:26:53.521Z,18.80
2022-12-08T19:31:48.924Z,18.23
2022-12-08T19:34:19.605Z,78.82
2022-12-08T19:36:48.216Z,106.00
2022-12-08T19:39:40.614Z,24.10
2022-12-08T19:42:36.632Z,13.55
2022-12-08T19:45:13.354Z,18.75
2022-12-08T19:47:41.823Z,37.72
2022-12-08T19:52:58.425Z,213.65
2022-12-08T19:55:27.656Z,263.33
2022-12-08T19:57:56.763Z,183.70
2022-12-08T20:00:24.717Z,160.20
2022-12-08T20:02:52.424Z,154.60
2022-12-08T20:05:20.305Z,154.90
2022-12-08T20:07:48.002Z,206.73
2022-12-08T20:10:30.741Z,131.48
2022-12-08T20:13:17.130Z,136.15
2022-12-08T20:15:45.736Z,134.60
2022-12-08T20:18:15.476Z,129.77
2022-12-08T20:20:45.762Z,128.85
2022-12-08T20:23:15.564Z,144.77
2022-12-08T20:25:45.427Z,175.10
2022-12-08T20:28:14.542Z,158.77
2022-12-08T20:30:44.021Z,218.20
2022-12-08T20:33:14.032Z,154.55
2022-12-08T20:35:43.203Z,161.63
2022-12-08T20:38:13.508Z,148.50
2022-12-08T20:40:46.555Z,128.10
2022-12-08T20:43:15.231Z,145.68
2022-12-08T20:45:43.468Z,141.95
2022-12-08T20:48:11.907Z,147.38
2022-12-08T20:50:40.423Z,142.70
2022-12-08T20:53:09.598Z,136.63
2022-12-08T20:55:43.012Z,122.90
2022-12-08T20:58:12.571Z,129.70
2022-12-08T21:00:40.792Z,132.07
2022-12-08T21:03:09.542Z,94.88
2022-12-08T21:05:39.070Z,107.72
2022-12-08T21:08:08.095Z,103.18
2022-12-08T21:10:42.203Z,101.85
2022-12-08T21:13:12.258Z,106.63
2022-12-08T21:18:17.035Z,70.93
2022-12-08T21:20:45.788Z,60.17
2022-12-08T21:23:14.117Z,59.17
2022-12-08T21:25:45.176Z,56.90
2022-12-08T21:28:13.593Z,66.72
2022-12-08T21:30:43.174Z,64.20
2022-12-08T21:33:10.918Z,65.43
2022-12-08T21:35:38.820Z,66.15
2022-12-08T21:38:07.406Z,81.23
2022-12-08T21:43:06.057Z,78.85
2022-12-08T21:45:34.341Z,88.35
2022-12-08T21:48:10.330Z,108.03
2022-12-08T21:50:39.779Z,141.23
2022-12-08T21:53:08.025Z,122.63
2022-12-08T21:55:35.780Z,88.22
2022-12-08T21:58:03.460Z,82.85
2022-12-08T22:00:37.641Z,113.70
2022-12-08T22:03:06.019Z,54.92
2022-12-08T22:08:03.683Z,53.50
2022-12-08T22:10:31.573Z,48.25
2022-12-08T22:12:59.243Z,47.78
2022-12-08T22:15:29.734Z,40.50
2022-12-08T22:17:57.761Z,53.70
2022-12-08T22:20:25.701Z,51.78
2022-12-08T22:22:53.207Z,47.93
2022-12-08T22:25:21.103Z,45.40
2022-12-08T22:27:48.657Z,47.22
2022-12-08T22:30:16.314Z,53.33
2022-12-08T22:32:43.937Z,49.63
2022-12-08T22:35:11.552Z,63.83
2022-12-08T22:37:39.270Z,78.82
2022-12-08T22:40:08.381Z,71.20
2022-12-08T22:42:36.346Z,63.58
2022-12-08T22:45:04.212Z,51.22
2022-12-08T22:47:31.728Z,46.90
2022-12-08T22:49:59.878Z,39.35
2022-12-08T22:52:27.742Z,31.95
2022-12-08T22:54:55.772Z,25.20
2022-12-08T22:57:23.352Z,27.25
2022-12-08T22:59:50.909Z,25.05
2022-12-08T23:02:18.489Z,21.83
2022-12-08T23:04:46.529Z,24.67
2022-12-08T23:07:14.453Z,29.13
2022-12-08T23:09:42.309Z,26.10
2022-12-08T23:12:10.193Z,26.55
2022-12-08T23:14:38.074Z,27.70
2022-12-08T23:17:05.763Z,22.67
2022-12-08T23:19:37.169Z,20.60
2022-12-08T23:22:05.330Z,19.33
2022-12-08T23:24:33.021Z,19.73
2022-12-08T23:27:00.802Z,26.05
2022-12-08T23:29:28.374Z,25.08
2022-12-08T23:31:56.323Z,19.52
2022-12-08T23:34:24.451Z,17.13
2022-12-08T23:36:52.121Z,14.23
2022-12-08T23:39:19.800Z,14.93
2022-12-08T23:41:47.574Z,15.83
2022-12-08T23:44:15.381Z,15.38
2022-12-08T23:46:43.184Z,12.98
2022-12-08T23:49:11.027Z,12.45
2022-12-08T23:51:39.125Z,12.32
2022-12-08T23:54:07.955Z,12.38
2022-12-08T23:56:35.863Z,17.98
2022-12-08T23:59:03.648Z,16.98
